Time;durP1;ratioP1;P1;durP2;ratioP2;P2;SDS_P1;SDS_P2;PMS_P1;PMS_P2;Temp;Humidity;BMP_temperature;BMP_pressure;BME280_temperature;BME280_humidity;BME280_pressure;Samples;Min_cycle;Max_cycle;Signal;HPM_P1;HPM_P2
2021/11/28 00:01:54;;;;;;;90.70;61.20;;;307.40;2304.00;;;;;;5055286;28;20478;-87
2021/11/28 00:04:21;;;;;;;84.25;55.05;;;307.50;2304.00;;;;;;5055452;28;20049;-85
2021/11/28 00:06:59;;;;;;;80.65;52.88;;;307.50;2304.00;;;;;;5054835;28;20029;-87
2021/11/28 00:12:27;;;;;;;96.40;66.00;;;307.40;2304.00;;;;;;5056390;28;20036;-87
2021/11/28 00:14:57;;;;;;;128.45;82.38;;;307.40;2304.00;;;;;;5055316;28;20017;-89
2021/11/28 00:17:24;;;;;;;133.43;82.82;;;307.40;2304.00;;;;;;5055285;28;20021;-87
2021/11/28 00:19:50;;;;;;;116.70;78.70;;;307.30;2304.00;;;;;;5054882;28;20048;-87
2021/11/28 00:22:16;;;;;;;116.63;79.63;;;307.30;2304.00;;;;;;5055276;28;20043;-87
2021/11/28 00:24:42;;;;;;;132.60;87.07;;;307.30;2304.00;;;;;;5055122;28;20017;-87
2021/11/28 00:27:08;;;;;;;111.90;75.10;;;307.30;2304.00;;;;;;5056367;28;20071;-87
2021/11/28 00:29:35;;;;;;;107.93;72.53;;;307.20;2304.00;;;;;;5055313;28;20017;-88
2021/11/28 00:32:01;;;;;;;115.03;78.75;;;307.30;2304.00;;;;;;5055218;28;20013;-88
2021/11/28 00:34:27;;;;;;;111.78;71.30;;;307.40;2304.00;;;;;;5054636;28;20021;-86
2021/11/28 00:36:53;;;;;;;103.70;62.88;;;307.40;2304.00;;;;;;5054867;28;20021;-87
2021/11/28 00:39:19;;;;;;;88.50;55.72;;;307.50;2304.00;;;;;;5054897;28;20024;-88
2021/11/28 00:41:46;;;;;;;73.10;42.25;;;307.60;2304.00;;;;;;5054759;28;20032;-89
2021/11/28 00:44:11;;;;;;;66.38;38.67;;;307.70;2304.00;;;;;;5054806;28;20074;-85
2021/11/28 00:46:37;;;;;;;65.50;37.50;;;307.70;2304.00;;;;;;5054632;28;20029;-85
2021/11/28 00:49:11;;;;;;;49.60;34.22;;;307.80;2304.00;;;;;;5054575;28;20049;-85
2021/11/28 00:51:49;;;;;;;56.38;36.22;;;307.80;2304.00;;;;;;5054833;28;20423;-88
2021/11/28 00:54:16;;;;;;;48.55;33.42;;;307.90;2304.00;;;;;;5054563;28;20027;-85
2021/11/28 00:56:42;;;;;;;52.10;34.90;;;307.70;2304.00;;;;;;5054773;28;20029;-85
2021/11/28 00:59:08;;;;;;;51.33;35.33;;;308.10;2304.00;;;;;;5054590;28;20044;-85
2021/11/28 01:01:34;;;;;;;59.92;41.25;;;307.60;2304.00;;;;;;5054303;28;20476;-86
2021/11/28 01:04:04;;;;;;;69.60;43.50;;;307.60;2304.00;;;;;;5054479;28;20079;-87
2021/11/28 01:06:30;;;;;;;67.93;45.60;;;307.60;2304.00;;;;;;5054383;28;20032;-85
2021/11/28 01:08:56;;;;;;;62.78;40.85;;;307.50;2304.00;;;;;;5054021;28;20448;-85
2021/11/28 01:11:23;;;;;;;61.75;40.72;;;307.40;2304.00;;;;;;5054226;28;20368;-84
2021/11/28 01:13:51;;;;;;;62.17;39.22;;;307.50;2304.00;;;;;;5054314;28;20115;-85
2021/11/28 01:16:19;;;;;;;44.63;28.05;;;307.50;2304.00;;;;;;5054076;28;20028;-85
2021/11/28 01:18:45;;;;;;;22.38;15.52;;;307.40;2304.00;;;;;;5054038;28;20131;-84
2021/11/28 01:21:11;;;;;;;28.92;18.88;;;307.60;2304.00;;;;;;5054133;28;20064;-85
2021/11/28 01:23:37;;;;;;;26.08;16.67;;;307.70;2304.00;;;;;;5070672;28;20051;-85
2021/11/28 01:26:03;;;;;;;24.33;17.42;;;307.80;2304.00;;;;;;5053859;28;20021;-85
2021/11/28 01:28:29;;;;;;;28.08;16.98;;;307.80;2304.00;;;;;;5054296;28;20029;-85
2021/11/28 01:30:55;;;;;;;22.25;14.77;;;307.70;2304.00;;;;;;5054052;28;20047;-85
2021/11/28 01:33:21;;;;;;;24.45;15.68;;;307.70;2304.00;;;;;;5053584;28;20032;-86
2021/11/28 01:35:47;;;;;;;38.20;22.98;;;307.60;2304.00;;;;;;5054215;28;20025;-84
2021/11/28 01:38:18;;;;;;;48.00;28.08;;;307.60;2304.00;;;;;;5053561;28;20476;-85
2021/11/28 01:40:45;;;;;;;41.72;27.55;;;307.60;2304.00;;;;;;5053909;28;20033;-84
2021/11/28 01:43:15;;;;;;;34.90;24.90;;;307.40;2304.00;;;;;;5053707;28;20415;-84
2021/11/28 01:45:42;;;;;;;31.63;20.08;;;307.40;2304.00;;;;;;5053954;28;20043;-86
2021/11/28 01:48:11;;;;;;;33.60;20.95;;;307.30;2304.00;;;;;;5053102;28;20426;-85
2021/11/28 01:50:39;;;;;;;24.77;16.30;;;307.40;2304.00;;;;;;5053733;28;20021;-86
2021/11/28 01:53:10;;;;;;;26.17;15.32;;;307.40;2304.00;;;;;;5053685;28;20021;-86
2021/11/28 01:55:36;;;;;;;21.70;15.85;;;307.40;2304.00;;;;;;5053098;28;20071;-87
2021/11/28 01:58:05;;;;;;;22.77;16.77;;;307.30;2304.00;;;;;;5053127;28;20025;-84
2021/11/28 02:00:38;;;;;;;65.03;33.17;;;307.30;2304.00;;;;;;5052972;28;20398;-85
2021/11/28 02:03:04;;;;;;;40.47;23.05;;;307.20;2304.00;;;;;;5054561;28;20388;-87
2021/11/28 02:05:30;;;;;;;26.08;16.25;;;307.20;2304.00;;;;;;5053207;28;20025;-85
2021/11/28 02:07:57;;;;;;;27.30;16.98;;;307.20;2304.00;;;;;;5053193;28;20028;-85
2021/11/28 02:10:24;;;;;;;32.20;20.25;;;307.20;2304.00;;;;;;5053280;28;20365;-86
2021/11/28 02:12:50;;;;;;;62.60;32.80;;;307.20;2304.00;;;;;;5054326;28;20025;-85
2021/11/28 02:15:18;;;;;;;53.20;29.85;;;282.50;2278.40;;;;;;5054074;28;20155;-87
2021/11/28 02:17:48;;;;;;;105.18;52.00;;;282.40;2278.40;;;;;;5053137;28;20040;-85
2021/11/28 02:20:14;;;;;;;65.40;36.60;;;282.50;2278.40;;;;;;5053321;28;20039;-87
2021/11/28 02:22:40;;;;;;;58.03;36.08;;;282.40;2278.40;;;;;;5053025;28;20017;-90
2021/11/28 02:25:10;;;;;;;47.80;28.95;;;282.40;2278.40;;;;;;5053112;28;20475;-87
2021/11/28 02:27:36;;;;;;;43.75;27.00;;;282.50;2278.40;;;;;;5053345;28;20120;-89
2021/11/28 02:30:03;;;;;;;59.33;33.97;;;282.40;2278.40;;;;;;5052955;28;20021;-90
2021/11/28 02:32:29;;;;;;;66.82;38.50;;;282.30;2278.40;;;;;;5053282;28;20470;-88
2021/11/28 02:34:55;;;;;;;41.35;27.45;;;282.30;2278.40;;;;;;5052959;28;20040;-87
2021/11/28 02:37:22;;;;;;;29.73;18.20;;;282.30;2278.40;;;;;;5052974;28;20022;-89
2021/11/28 02:39:47;;;;;;;23.00;15.07;;;282.40;2278.40;;;;;;5053055;28;20025;-88
2021/11/28 02:42:18;;;;;;;16.58;11.02;;;282.50;2278.40;;;;;;5052650;28;20059;-90
2021/11/28 02:44:44;;;;;;;17.58;11.40;;;282.50;2278.40;;;;;;5053288;28;20086;-90
2021/11/28 02:47:10;;;;;;;18.58;10.65;;;282.40;2278.40;;;;;;5053221;28;20369;-89
2021/11/28 02:49:36;;;;;;;22.45;11.02;;;282.50;2278.40;;;;;;5052369;28;20056;-89
2021/11/28 02:52:03;;;;;;;18.63;10.88;;;282.50;2278.40;;;;;;5053014;28;20025;-88
2021/11/28 02:54:29;;;;;;;16.83;9.32;;;282.50;2278.40;;;;;;5053092;28;20361;-88
2021/11/28 02:56:54;;;;;;;22.40;11.75;;;282.50;2278.40;;;;;;5052693;28;20021;-88
2021/11/28 02:59:20;;;;;;;19.73;12.60;;;282.50;2278.40;;;;;;5053702;28;20032;-89
2021/11/28 03:01:46;;;;;;;15.27;8.18;;;282.50;2278.40;;;;;;5056725;28;20338;-87
2021/11/28 03:04:13;;;;;;;13.05;8.00;;;307.20;2304.00;;;;;;5056669;28;20028;-90
2021/11/28 03:06:38;;;;;;;14.75;9.23;;;307.70;2304.00;;;;;;5056782;28;20025;-88
2021/11/28 03:09:05;;;;;;;13.40;8.25;;;307.30;2304.00;;;;;;5056672;28;20028;-88
2021/11/28 03:11:31;;;;;;;15.32;8.75;;;307.70;2304.00;;;;;;5057810;28;20104;-88
2021/11/28 03:13:57;;;;;;;14.88;9.77;;;307.30;2304.00;;;;;;5056476;28;20052;-87
2021/11/28 03:16:25;;;;;;;10.30;7.13;;;307.20;2304.00;;;;;;5056162;28;20021;-87
2021/11/28 03:18:52;;;;;;;13.88;8.18;;;307.30;2304.00;;;;;;5056239;28;20075;-88
2021/11/28 03:21:25;;;;;;;11.88;6.75;;;307.30;2304.00;;;;;;5056497;28;20025;-87
2021/11/28 03:23:54;;;;;;;10.45;6.32;;;307.30;2304.00;;;;;;5056392;28;20112;-87
2021/11/28 03:26:29;;;;;;;11.50;5.47;;;307.30;2304.00;;;;;;5056097;28;20017;-88
2021/11/28 03:28:56;;;;;;;11.68;5.88;;;307.30;2304.00;;;;;;5056340;28;20372;-87
2021/11/28 03:31:25;;;;;;;10.45;6.13;;;307.30;2304.00;;;;;;5055983;28;20017;-89
2021/11/28 03:33:51;;;;;;;11.10;6.47;;;307.40;2304.00;;;;;;5057314;28;20108;-88
2021/11/28 03:36:19;;;;;;;9.40;5.60;;;307.50;2304.00;;;;;;5056083;28;20017;-89
2021/11/28 03:38:47;;;;;;;7.85;4.90;;;307.40;2304.00;;;;;;5056711;28;20031;-89
2021/11/28 03:41:13;;;;;;;11.07;4.65;;;307.30;2304.00;;;;;;5056231;28;20460;-88
2021/11/28 03:43:39;;;;;;;9.38;5.50;;;307.30;2304.00;;;;;;5055836;28;20399;-88
2021/11/28 03:46:06;;;;;;;10.40;5.57;;;307.20;2304.00;;;;;;5055888;28;20159;-89
2021/11/28 03:48:32;;;;;;;10.90;5.75;;;307.30;2304.00;;;;;;5055501;28;20073;-88
2021/11/28 03:50:57;;;;;;;8.45;5.10;;;307.20;2304.00;;;;;;5055902;28;20017;-89
2021/11/28 03:53:23;;;;;;;8.05;4.85;;;307.20;2304.00;;;;;;5055848;28;20031;-89
2021/11/28 03:55:50;;;;;;;8.48;4.95;;;307.20;2304.00;;;;;;5055742;28;20031;-90
2021/11/28 03:58:17;;;;;;;7.63;3.90;;;307.30;2304.00;;;;;;5055717;28;20028;-88
2021/11/28 04:00:44;;;;;;;9.45;6.05;;;307.30;2304.00;;;;;;5055553;28;20031;-88
2021/11/28 04:03:11;;;;;;;9.98;6.43;;;307.30;2304.00;;;;;;5055758;28;20448;-88
2021/11/28 04:05:38;;;;;;;31.80;19.75;;;307.40;2304.00;;;;;;5055577;28;20346;-87
2021/11/28 04:08:04;;;;;;;18.30;11.50;;;307.40;2304.00;;;;;;5055507;28;20017;-88
2021/11/28 04:10:30;;;;;;;19.00;12.30;;;307.50;2304.00;;;;;;5055285;28;20025;-87
2021/11/28 04:12:55;;;;;;;25.58;15.52;;;307.40;2304.00;;;;;;5055662;28;20088;-88
2021/11/28 04:15:21;;;;;;;16.75;10.77;;;307.30;2304.00;;;;;;5071870;28;20472;-87
2021/11/28 04:17:47;;;;;;;19.13;10.95;;;307.40;2304.00;;;;;;5055339;28;20060;-89
2021/11/28 04:20:13;;;;;;;14.43;8.40;;;307.30;2304.00;;;;;;5055166;28;20400;-89
2021/11/28 04:22:39;;;;;;;12.95;7.72;;;307.30;2304.00;;;;;;5055425;28;20441;-89
2021/11/28 04:25:08;;;;;;;16.60;9.52;;;307.30;2304.00;;;;;;5055355;28;20025;-87
2021/11/28 04:27:34;;;;;;;20.38;12.68;;;307.30;2304.00;;;;;;5055100;28;20020;-90
2021/11/28 04:30:00;;;;;;;25.40;14.75;;;307.30;2304.00;;;;;;5055256;28;20023;-90
2021/11/28 04:32:25;;;;;;;28.55;16.65;;;307.20;2304.00;;;;;;5055459;28;20021;-88
2021/11/28 04:34:51;;;;;;;8.65;6.15;;;307.20;2304.00;;;;;;5055352;28;20021;-89
2021/11/28 04:37:17;;;;;;;7.20;3.75;;;307.30;2304.00;;;;;;5071902;28;20025;-89
2021/11/28 04:39:43;;;;;;;11.20;4.70;;;307.40;2304.00;;;;;;5055427;28;20025;-91
2021/11/28 04:42:09;;;;;;;10.98;6.18;;;307.50;2304.00;;;;;;5055059;28;20051;-89
2021/11/28 04:44:35;;;;;;;20.05;9.93;;;307.50;2304.00;;;;;;5055070;28;20112;-88
2021/11/28 04:47:01;;;;;;;17.15;9.02;;;307.40;2304.00;;;;;;5054930;28;20511;-89
2021/11/28 04:49:27;;;;;;;13.85;8.00;;;307.40;2304.00;;;;;;5054600;28;20045;-90
2021/11/28 04:51:53;;;;;;;24.85;15.38;;;307.40;2304.00;;;;;;5054812;28;20021;-90
2021/11/28 04:54:19;;;;;;;23.38;13.52;;;307.30;2304.00;;;;;;5054756;28;20107;-88
2021/11/28 04:56:45;;;;;;;18.48;11.77;;;307.30;2304.00;;;;;;5054355;28;20411;-87
2021/11/28 04:59:10;;;;;;;18.83;10.68;;;307.30;2304.00;;;;;;5054449;28;20170;-88
2021/11/28 05:01:37;;;;;;;15.95;9.52;;;307.30;2304.00;;;;;;5054293;28;20029;-87
2021/11/28 05:04:03;;;;;;;17.13;10.20;;;307.20;2304.00;;;;;;5054215;28;20116;-88
2021/11/28 05:06:28;;;;;;;22.15;13.25;;;282.50;2278.40;;;;;;5054486;28;20063;-88
2021/11/28 05:08:55;;;;;;;21.50;13.52;;;282.50;2278.40;;;;;;5054490;28;20064;-88
2021/11/28 05:11:21;;;;;;;19.50;11.05;;;282.30;2278.40;;;;;;5054391;28;20021;-88
2021/11/28 05:13:46;;;;;;;13.82;9.27;;;282.40;2278.40;;;;;;5054405;28;20352;-91
2021/11/28 05:16:12;;;;;;;13.52;8.63;;;282.40;2278.40;;;;;;5054298;28;20028;-88
2021/11/28 05:18:38;;;;;;;12.70;8.13;;;282.50;2278.40;;;;;;5054327;28;20128;-88
2021/11/28 05:21:04;;;;;;;11.38;7.57;;;282.50;2278.40;;;;;;5055168;28;20028;-88
2021/11/28 05:23:31;;;;;;;12.43;6.72;;;282.40;2278.40;;;;;;5053222;28;20024;-89
2021/11/28 05:25:56;;;;;;;11.27;6.00;;;282.40;2278.40;;;;;;5054134;28;20048;-87
2021/11/28 05:28:22;;;;;;;10.95;6.70;;;282.30;2278.40;;;;;;5054052;28;20024;-88
2021/11/28 05:30:49;;;;;;;12.70;8.45;;;282.40;2278.40;;;;;;5070487;28;20024;-88
2021/11/28 05:33:15;;;;;;;9.77;7.40;;;282.40;2278.40;;;;;;5053931;28;20086;-89
2021/11/28 05:35:41;;;;;;;12.10;8.18;;;282.30;2278.40;;;;;;5053950;28;20017;-87
2021/11/28 05:38:06;;;;;;;19.42;8.80;;;282.30;2278.40;;;;;;5053787;28;20048;-88
2021/11/28 05:40:32;;;;;;;14.35;7.45;;;282.40;2278.40;;;;;;5054088;28;20070;-87
2021/11/28 05:42:58;;;;;;;12.07;6.95;;;282.50;2278.40;;;;;;5053784;28;20017;-87
2021/11/28 05:45:25;;;;;;;12.25;7.35;;;307.20;2304.00;;;;;;5053771;28;20582;-88
2021/11/28 05:47:52;;;;;;;9.02;5.40;;;282.50;2278.40;;;;;;5055177;28;20028;-88
2021/11/28 05:50:20;;;;;;;7.65;4.80;;;282.50;2278.40;;;;;;5053587;28;20045;-88
2021/11/28 05:52:46;;;;;;;7.93;4.82;;;282.50;2278.40;;;;;;5053395;28;20024;-89
2021/11/28 05:55:13;;;;;;;8.10;6.10;;;307.20;2304.00;;;;;;5053614;28;20027;-87
2021/11/28 05:57:41;;;;;;;16.08;10.00;;;282.50;2278.40;;;;;;5053560;28;20028;-87
2021/11/28 06:00:09;;;;;;;23.33;12.60;;;282.40;2278.40;;;;;;5054490;28;20021;-89
2021/11/28 06:02:36;;;;;;;13.60;9.02;;;282.40;2278.40;;;;;;5053455;28;20016;-89
2021/11/28 06:05:03;;;;;;;15.50;9.40;;;282.50;2278.40;;;;;;5053536;28;20060;-89
2021/11/28 06:07:29;;;;;;;17.63;10.18;;;282.50;2278.40;;;;;;5053070;28;20025;-89
2021/11/28 06:09:55;;;;;;;19.73;10.23;;;282.40;2278.40;;;;;;5053219;28;20444;-86
2021/11/28 06:12:22;;;;;;;15.50;11.90;;;282.50;2278.40;;;;;;5053019;28;20032;-87
2021/11/28 06:14:48;;;;;;;19.35;14.10;;;282.40;2278.40;;;;;;5053273;28;20082;-88
2021/11/28 06:17:14;;;;;;;17.23;11.27;;;282.50;2278.40;;;;;;5053175;28;20025;-89
2021/11/28 06:19:40;;;;;;;10.43;8.95;;;282.50;2278.40;;;;;;5053079;28;20024;-87
2021/11/28 06:22:08;;;;;;;11.57;9.10;;;282.50;2278.40;;;;;;5053008;28;20477;-87
2021/11/28 06:24:35;;;;;;;11.73;8.77;;;307.20;2304.00;;;;;;5054129;28;20100;-86
2021/11/28 06:27:02;;;;;;;10.68;7.57;;;307.20;2304.00;;;;;;5052821;28;20040;-88
2021/11/28 06:29:27;;;;;;;12.02;7.35;;;307.20;2304.00;;;;;;5053029;28;20025;-87
2021/11/28 06:31:53;;;;;;;14.15;7.80;;;307.30;2304.00;;;;;;5053239;28;20035;-87
2021/11/28 06:34:19;;;;;;;9.98;7.35;;;307.20;2304.00;;;;;;5052789;28;20493;-88
2021/11/28 06:36:45;;;;;;;13.35;8.15;;;307.20;2304.00;;;;;;5052863;28;20110;-89
2021/11/28 06:39:11;;;;;;;12.98;9.20;;;307.20;2304.00;;;;;;5052875;28;20064;-86
2021/11/28 06:41:37;;;;;;;19.65;12.82;;;307.30;2304.00;;;;;;5052799;28;20108;-87
2021/11/28 06:44:03;;;;;;;28.17;17.42;;;307.30;2304.00;;;;;;5053269;28;20021;-87
2021/11/28 06:46:29;;;;;;;27.98;19.80;;;307.40;2304.00;;;;;;5053048;28;20035;-88
2021/11/28 06:48:54;;;;;;;30.95;19.88;;;307.40;2304.00;;;;;;5052353;28;20040;-88
2021/11/28 06:51:21;;;;;;;27.55;17.75;;;307.50;2304.00;;;;;;5052848;28;20032;-87
2021/11/28 06:53:47;;;;;;;29.60;20.25;;;307.50;2304.00;;;;;;5052874;28;20421;-87
2021/11/28 06:56:12;;;;;;;27.35;17.15;;;307.60;2304.00;;;;;;5052631;28;20049;-88
2021/11/28 06:58:38;;;;;;;15.60;10.15;;;307.60;2304.00;;;;;;5052657;28;20522;-88
2021/11/28 07:01:05;;;;;;;13.32;9.30;;;307.60;2304.00;;;;;;5052714;28;20044;-88
2021/11/28 07:03:30;;;;;;;15.48;9.38;;;307.60;2304.00;;;;;;5052476;28;20025;-88
2021/11/28 07:05:56;;;;;;;12.43;8.52;;;307.60;2304.00;;;;;;5052897;28;20028;-85
2021/11/28 07:08:22;;;;;;;11.63;8.10;;;307.60;2304.00;;;;;;5053630;28;20025;-85
2021/11/28 07:10:48;;;;;;;11.05;6.90;;;307.60;2304.00;;;;;;5053560;28;20051;-86
2021/11/28 07:13:14;;;;;;;8.70;6.32;;;307.60;2304.00;;;;;;5052482;28;20021;-87
2021/11/28 07:15:41;;;;;;;11.52;6.88;;;307.60;2304.00;;;;;;5052327;28;20168;-85
2021/11/28 07:18:07;;;;;;;12.43;8.30;;;307.60;2304.00;;;;;;5052310;28;20449;-84
2021/11/28 07:20:34;;;;;;;12.52;7.22;;;307.60;2304.00;;;;;;5052565;28;20024;-85
2021/11/28 07:23:01;;;;;;;12.55;7.35;;;307.60;2304.00;;;;;;5052314;28;20025;-82
2021/11/28 07:25:27;;;;;;;9.25;6.35;;;307.60;2304.00;;;;;;5052347;28;20028;-87
2021/11/28 07:27:53;;;;;;;11.02;7.57;;;307.70;2304.00;;;;;;5052549;28;20025;-86
2021/11/28 07:30:19;;;;;;;12.60;7.30;;;308.10;2304.00;;;;;;5052248;28;20468;-84
2021/11/28 07:32:45;;;;;;;10.10;6.65;;;307.80;2304.00;;;;;;5052304;28;20025;-85
2021/11/28 07:35:11;;;;;;;10.68;7.70;;;308.00;2304.00;;;;;;5069132;28;20032;-85
2021/11/28 07:37:36;;;;;;;14.85;8.00;;;308.10;2304.00;;;;;;5053483;28;20055;-86
2021/11/28 07:40:03;;;;;;;15.32;8.63;;;332.80;2329.60;;;;;;5052328;28;20536;-86
2021/11/28 07:42:29;;;;;;;15.88;10.10;;;332.80;2329.60;;;;;;5052353;28;20120;-86
2021/11/28 07:44:56;;;;;;;17.45;11.35;;;332.90;2329.60;;;;;;5052309;28;20063;-86
2021/11/28 07:47:21;;;;;;;25.17;15.05;;;333.00;2329.60;;;;;;5056046;28;20088;-83
2021/11/28 07:49:47;;;;;;;20.17;11.93;;;333.00;2329.60;;;;;;5055559;28;20468;-81
2021/11/28 07:52:13;;;;;;;15.50;10.15;;;333.00;2329.60;;;;;;5055318;28;20360;-83
2021/11/28 07:54:39;;;;;;;12.23;8.13;;;333.00;2329.60;;;;;;5055535;28;20028;-83
2021/11/28 07:57:05;;;;;;;13.15;8.18;;;332.90;2329.60;;;;;;5055403;28;20029;-84
2021/11/28 07:59:34;;;;;;;13.07;8.55;;;332.90;2329.60;;;;;;5055152;28;20021;-83
2021/11/28 08:02:00;;;;;;;18.13;9.55;;;332.90;2329.60;;;;;;5056638;28;20028;-83
2021/11/28 08:04:26;;;;;;;18.35;11.88;;;332.90;2329.60;;;;;;5056732;28;20017;-82
2021/11/28 08:06:52;;;;;;;16.08;10.50;;;333.00;2329.60;;;;;;5055546;28;20017;-83
2021/11/28 08:09:18;;;;;;;15.63;10.07;;;333.00;2329.60;;;;;;5055291;28;20071;-82
2021/11/28 08:11:44;;;;;;;19.60;12.23;;;333.00;2329.60;;;;;;5054954;28;20027;-85
2021/11/28 08:14:10;;;;;;;18.75;10.82;;;333.10;2329.60;;;;;;5055146;28;20021;-79
2021/11/28 08:16:36;;;;;;;10.23;6.20;;;333.10;2329.60;;;;;;5056064;28;20028;-79
2021/11/28 08:19:03;;;;;;;12.40;8.27;;;333.20;2329.60;;;;;;5054620;28;20082;-80
2021/11/28 08:21:28;;;;;;;12.93;7.65;;;333.30;2329.60;;;;;;5054924;28;20388;-81
2021/11/28 08:23:56;;;;;;;10.25;6.22;;;333.40;2329.60;;;;;;5054845;28;20059;-82
2021/11/28 08:26:22;;;;;;;12.23;6.03;;;333.40;2329.60;;;;;;5054523;28;20365;-79
2021/11/28 08:28:48;;;;;;;10.05;7.13;;;333.70;2329.60;;;;;;5054711;28;20036;-81
2021/11/28 08:31:14;;;;;;;13.15;7.88;;;333.70;2329.60;;;;;;5055883;28;20025;-81
2021/11/28 08:33:40;;;;;;;11.93;7.47;;;358.40;2329.60;;;;;;5054355;28;20017;-80
2021/11/28 08:36:06;;;;;;;11.40;8.02;;;358.50;2329.60;;;;;;5054672;28;20067;-82
2021/11/28 08:38:32;;;;;;;14.95;9.07;;;358.60;2329.60;;;;;;5054489;28;20025;-79
2021/11/28 08:40:59;;;;;;;10.20;6.90;;;358.70;2329.60;;;;;;5054252;28;20033;-79
2021/11/28 08:43:25;;;;;;;12.60;6.43;;;358.80;2329.60;;;;;;5054517;28;20029;-81
2021/11/28 08:45:51;;;;;;;10.65;5.70;;;358.90;2329.60;;;;;;5054405;28;20021;-82
2021/11/28 08:48:17;;;;;;;9.27;4.90;;;359.00;2329.60;;;;;;5053823;28;20075;-80
2021/11/28 08:50:44;;;;;;;9.73;4.60;;;359.10;2329.60;;;;;;5055342;28;20021;-81
2021/11/28 08:53:11;;;;;;;8.32;4.45;;;359.10;2329.60;;;;;;5053913;28;20053;-79
2021/11/28 08:55:37;;;;;;;11.45;4.75;;;359.00;2329.60;;;;;;5054164;28;20094;-80
2021/11/28 08:58:04;;;;;;;6.40;4.07;;;359.20;2329.60;;;;;;5053975;28;20120;-81
2021/11/28 09:00:30;;;;;;;9.57;4.93;;;359.20;2329.60;;;;;;5053784;28;20025;-79
2021/11/28 09:02:56;;;;;;;6.85;4.35;;;359.20;2329.60;;;;;;5053999;28;20021;-80
2021/11/28 09:05:24;;;;;;;8.77;5.03;;;359.20;2329.60;;;;;;5053911;28;20109;-79
2021/11/28 09:07:50;;;;;;;8.85;5.75;;;359.20;2329.60;;;;;;5053638;28;20028;-79
2021/11/28 09:10:18;;;;;;;8.75;6.30;;;359.30;2329.60;;;;;;5053831;28;20020;-79
2021/11/28 09:12:45;;;;;;;8.68;5.30;;;359.30;2329.60;;;;;;5055148;28;20028;-78
2021/11/28 09:15:12;;;;;;;7.90;5.63;;;384.10;2329.60;;;;;;5053497;28;20171;-80
2021/11/28 09:17:41;;;;;;;7.97;3.45;;;384.00;2329.60;;;;;;5053669;28;20072;-80
2021/11/28 09:20:09;;;;;;;10.68;4.35;;;384.00;2329.60;;;;;;5053650;28;20032;-79
2021/11/28 09:25:15;;;;;;;11.73;4.85;;;384.20;2329.60;;;;;;5054528;28;20021;-81
2021/11/28 09:27:42;;;;;;;7.10;3.13;;;384.20;2329.60;;;;;;5053463;28;20021;-81
2021/11/28 09:30:09;;;;;;;8.68;3.28;;;384.10;2329.60;;;;;;5052827;28;20017;-82
2021/11/28 09:32:35;;;;;;;5.38;3.97;;;384.10;2329.60;;;;;;5053433;28;20028;-81
2021/11/28 09:35:01;;;;;;;9.50;6.45;;;384.20;2329.60;;;;;;5053493;28;20357;-78
2021/11/28 09:37:27;;;;;;;10.35;3.90;;;384.30;2329.60;;;;;;5053299;28;20020;-81
2021/11/28 09:39:52;;;;;;;8.32;5.20;;;384.30;2329.60;;;;;;5055136;28;20033;-82
2021/11/28 09:42:26;;;;;;;11.40;5.75;;;384.40;2329.60;;;;;;5053312;28;20373;-80
2021/11/28 09:44:53;;;;;;;13.75;9.23;;;384.30;2329.60;;;;;;5054503;28;20367;-82
2021/11/28 09:47:19;;;;;;;10.52;6.70;;;384.30;2329.60;;;;;;5078281;28;20025;-82
2021/11/28 09:49:46;;;;;;;9.50;5.82;;;384.20;2329.60;;;;;;5077811;28;20051;-82
2021/11/28 09:52:21;;;;;;;9.25;6.38;;;384.40;2329.60;;;;;;5063796;28;20025;-80
2021/11/28 09:54:48;;;;;;;6.47;4.22;;;384.10;2329.60;;;;;;5053603;28;20017;-82
2021/11/28 09:57:16;;;;;;;10.98;5.38;;;384.10;2329.60;;;;;;5054363;28;20052;-81
2021/11/28 09:59:47;;;;;;;11.88;6.35;;;384.10;2329.60;;;;;;5053383;28;20036;-84
2021/11/28 10:02:19;;;;;;;12.43;6.97;;;384.20;2329.60;;;;;;5053043;28;20473;-82
2021/11/28 10:04:45;;;;;;;13.95;9.13;;;384.10;2329.60;;;;;;5053938;28;20042;-82
2021/11/28 10:07:15;;;;;;;18.95;11.40;;;384.10;2329.60;;;;;;5054145;28;20025;-81
2021/11/28 10:09:42;;;;;;;17.27;9.55;;;384.10;2329.60;;;;;;5053662;28;20044;-83
2021/11/28 10:12:25;;;;;;;15.68;8.82;;;384.20;2329.60;;;;;;5054140;28;20108;-83
2021/11/28 10:14:57;;;;;;;7.82;5.28;;;384.10;2329.60;;;;;;5052960;28;20182;-83
2021/11/28 10:17:27;;;;;;;12.52;7.10;;;384.10;2329.60;;;;;;5054326;28;20097;-83
2021/11/28 10:19:53;;;;;;;11.10;8.27;;;384.10;2329.60;;;;;;5052976;28;20377;-84
2021/11/28 10:22:19;;;;;;;18.88;9.90;;;384.10;2329.60;;;;;;5053040;28;20039;-82
2021/11/28 10:24:51;;;;;;;10.45;7.07;;;384.00;2329.60;;;;;;5052556;28;20025;-84
2021/11/28 10:27:17;;;;;;;12.80;6.95;;;384.00;2329.60;;;;;;5054337;28;20032;-84
2021/11/28 10:29:43;;;;;;;6.45;4.38;;;384.00;2329.60;;;;;;5069628;28;20029;-81
2021/11/28 10:32:12;;;;;;;8.50;5.65;;;384.00;2329.60;;;;;;5053617;28;20032;-82
2021/11/28 10:34:44;;;;;;;6.47;4.40;;;384.00;2329.60;;;;;;5052656;28;20108;-81
2021/11/28 10:37:12;;;;;;;11.18;7.07;;;384.00;2329.60;;;;;;5054065;28;20088;-85
2021/11/28 10:39:41;;;;;;;31.77;18.27;;;384.00;2329.60;;;;;;5052390;28;20024;-83
2021/11/28 10:42:09;;;;;;;37.95;21.95;;;384.00;2329.60;;;;;;5052669;28;20021;-83
2021/11/28 10:44:36;;;;;;;23.30;15.00;;;384.00;2329.60;;;;;;5053944;28;20021;-82
2021/11/28 10:47:10;;;;;;;19.95;12.25;;;384.00;2329.60;;;;;;5053558;28;20022;-82
2021/11/28 10:49:40;;;;;;;12.75;8.60;;;384.00;2329.60;;;;;;5052393;28;20480;-83
2021/11/28 10:52:15;;;;;;;13.45;9.32;;;384.00;2329.60;;;;;;5052345;28;20094;-81
2021/11/28 10:54:44;;;;;;;9.55;7.25;;;384.00;2329.60;;;;;;5053531;28;20017;-84
2021/11/28 10:57:14;;;;;;;14.32;8.10;;;384.00;2329.60;;;;;;5052549;28;20031;-80
2021/11/28 10:59:43;;;;;;;9.77;5.53;;;384.00;2329.60;;;;;;5053194;28;20025;-83
2021/11/28 11:02:28;;;;;;;9.70;6.70;;;384.00;2329.60;;;;;;5052433;28;20029;-83
2021/11/28 11:04:56;;;;;;;17.77;13.85;;;384.10;2329.60;;;;;;5052616;28;20021;-83
2021/11/28 11:07:23;;;;;;;13.07;9.38;;;384.10;2329.60;;;;;;5053232;28;20013;-81
2021/11/28 11:09:51;;;;;;;16.02;11.95;;;384.10;2329.60;;;;;;5052390;28;20090;-81
2021/11/28 11:12:20;;;;;;;13.90;8.20;;;384.10;2329.60;;;;;;5052279;28;20025;-82
2021/11/28 11:14:50;;;;;;;14.55;9.57;;;384.10;2329.60;;;;;;5051964;28;20017;-82
2021/11/28 11:17:17;;;;;;;14.45;9.35;;;384.10;2329.60;;;;;;5052290;28;20163;-82
2021/11/28 11:19:50;;;;;;;9.80;6.40;;;384.10;2329.60;;;;;;5053556;28;20021;-81
2021/11/28 11:22:22;;;;;;;12.00;8.90;;;384.20;2329.60;;;;;;5055828;28;20031;-80
2021/11/28 11:25:03;;;;;;;13.32;10.02;;;384.20;2329.60;;;;;;5056062;28;20021;-82
2021/11/28 11:27:33;;;;;;;11.48;8.65;;;384.20;2329.60;;;;;;5055811;28;20365;-82
2021/11/28 11:30:03;;;;;;;14.63;10.65;;;384.30;2329.60;;;;;;5057510;28;20017;-82
2021/11/28 11:32:48;;;;;;;16.67;14.07;;;384.90;2329.60;;;;;;5055974;28;20025;-82
2021/11/28 11:35:20;;;;;;;12.15;9.15;;;409.80;2355.20;;;;;;5055596;28;20031;-85
2021/11/28 11:37:48;;;;;;;12.70;7.03;;;409.80;2355.20;;;;;;5055874;28;20025;-85
2021/11/28 11:40:16;;;;;;;9.65;4.80;;;409.70;2355.20;;;;;;5057104;28;20061;-84
2021/11/28 11:42:44;;;;;;;10.63;6.22;;;409.70;2355.20;;;;;;5055417;28;20115;-86
2021/11/28 11:45:13;;;;;;;15.10;10.73;;;409.70;2355.20;;;;;;5055739;28;20021;-84
2021/11/28 11:47:39;;;;;;;10.57;8.05;;;409.70;2355.20;;;;;;5056647;28;20017;-83
2021/11/28 11:50:09;;;;;;;5.75;3.70;;;409.80;2355.20;;;;;;5055065;28;20060;-84
2021/11/28 11:52:35;;;;;;;8.98;6.10;;;409.80;2355.20;;;;;;5055711;28;20048;-82
2021/11/28 11:55:09;;;;;;;12.82;9.80;;;409.90;2355.20;;;;;;5055416;28;20025;-83
2021/11/28 11:57:42;;;;;;;13.30;9.23;;;409.80;2355.20;;;;;;5055442;28;20079;-83
2021/11/28 12:00:24;;;;;;;8.88;6.80;;;409.70;2355.20;;;;;;5055556;28;20079;-84
2021/11/28 12:02:53;;;;;;;11.85;7.65;;;409.70;2355.20;;;;;;5071877;28;20120;-81
2021/11/28 12:05:25;;;;;;;12.23;7.47;;;409.70;2355.20;;;;;;5056549;28;20017;-84
2021/11/28 12:08:00;;;;;;;12.00;8.05;;;409.70;2355.20;;;;;;5056721;28;20403;-82
2021/11/28 12:10:37;;;;;;;12.20;8.25;;;409.70;2355.20;;;;;;5054874;28;20029;-84
2021/11/28 12:13:06;;;;;;;9.80;5.50;;;409.90;2355.20;;;;;;5056485;28;20024;-85